Time;durP1;ratioP1;P1;durP2;ratioP2;P2;SDS_P1;SDS_P2;PMS_P1;PMS_P2;Temp;Humidity;BMP_temperature;BMP_pressure;BME280_temperature;BME280_humidity;BME280_pressure;Samples;Min_cycle;Max_cycle;Signal;HPM_P1;HPM_P2
2022/09/16 00:00:18;;;;;;;3.03;0.38;;;11.80;99.90;;;;;;4977049;28;20554;-70
2022/09/16 00:02:43;;;;;;;2.85;0.47;;;11.80;99.90;;;;;;4994187;28;20418;-70
2022/09/16 00:05:09;;;;;;;4.30;0.60;;;11.70;99.90;;;;;;4993501;28;20089;-77
2022/09/16 00:07:35;;;;;;;2.53;0.40;;;11.80;99.90;;;;;;4993008;28;20065;-72
2022/09/16 00:10:02;;;;;;;3.28;0.65;;;11.90;99.90;;;;;;4992871;28;20058;-71
2022/09/16 00:12:28;;;;;;;2.30;0.60;;;11.70;99.90;;;;;;4992818;28;20432;-72
2022/09/16 00:14:54;;;;;;;3.25;0.50;;;11.80;99.90;;;;;;4994352;28;20054;-73
2022/09/16 00:17:20;;;;;;;4.90;0.45;;;11.80;99.90;;;;;;4993100;28;20109;-72
2022/09/16 00:19:46;;;;;;;3.00;0.50;;;11.70;99.90;;;;;;4993098;28;20058;-72
2022/09/16 00:22:12;;;;;;;2.42;0.40;;;11.70;99.90;;;;;;4993013;28;20042;-71
2022/09/16 00:24:37;;;;;;;2.45;0.40;;;11.80;99.90;;;;;;4993873;28;20129;-71
2022/09/16 00:27:03;;;;;;;3.15;0.60;;;11.80;99.90;;;;;;4993641;28;20049;-71
2022/09/16 00:29:29;;;;;;;3.72;0.35;;;11.60;99.90;;;;;;4992834;28;20117;-72
2022/09/16 00:31:55;;;;;;;1.42;0.40;;;11.80;99.90;;;;;;4992561;28;20129;-72
2022/09/16 00:34:21;;;;;;;2.30;0.30;;;11.60;99.90;;;;;;4993792;28;20478;-72
2022/09/16 00:36:47;;;;;;;3.67;0.50;;;11.80;99.90;;;;;;4992519;28;20052;-71
2022/09/16 00:39:12;;;;;;;4.88;0.60;;;11.70;99.90;;;;;;4993805;28;20134;-71
2022/09/16 00:41:39;;;;;;;3.22;0.65;;;11.50;99.90;;;;;;4993931;28;20129;-72
2022/09/16 00:44:25;;;;;;;3.17;0.70;;;11.50;99.90;;;;;;4992889;28;20089;-72
2022/09/16 00:46:51;;;;;;;3.22;0.60;;;11.60;99.90;;;;;;4976800;28;20409;-72
2022/09/16 00:49:18;;;;;;;2.40;0.50;;;11.50;99.90;;;;;;4993892;28;20053;-72
2022/09/16 00:51:46;;;;;;;3.22;0.40;;;11.50;99.90;;;;;;4993692;28;20129;-72
2022/09/16 00:54:13;;;;;;;1.65;0.32;;;11.60;99.90;;;;;;4993162;28;20057;-71
2022/09/16 00:56:42;;;;;;;2.83;0.50;;;11.60;99.90;;;;;;4992751;28;20466;-71
2022/09/16 00:59:16;;;;;;;2.88;0.50;;;11.70;99.90;;;;;;4993469;28;20089;-73
2022/09/16 01:01:43;;;;;;;2.22;0.60;;;11.60;99.90;;;;;;4993021;28;20042;-71
2022/09/16 01:04:16;;;;;;;2.13;0.50;;;11.80;99.90;;;;;;4993714;28;20051;-71
2022/09/16 01:06:42;;;;;;;5.60;0.60;;;11.60;99.90;;;;;;4993436;28;20050;-71
2022/09/16 01:09:08;;;;;;;3.35;0.43;;;11.70;99.90;;;;;;4993520;28;20058;-72
2022/09/16 01:11:34;;;;;;;3.05;0.40;;;11.60;99.90;;;;;;4993673;28;20097;-71
2022/09/16 01:17:01;;;;;;;2.55;0.38;;;11.80;99.90;;;;;;4992818;28;20569;-71
2022/09/16 01:19:50;;;;;;;1.77;0.40;;;11.60;99.90;;;;;;4976409;28;20038;-71
2022/09/16 01:22:34;;;;;;;3.95;0.50;;;11.60;99.90;;;;;;4993701;28;20465;-71
2022/09/16 01:25:22;;;;;;;0.65;0.20;;;11.90;99.90;;;;;;4976182;28;20050;-71
2022/09/16 01:27:51;;;;;;;2.03;0.30;;;11.50;99.90;;;;;;4993402;28;20058;-71
2022/09/16 01:30:45;;;;;;;2.80;0.50;;;11.60;99.90;;;;;;4992218;28;20042;-71
2022/09/16 01:33:26;;;;;;;2.80;0.40;;;11.50;99.90;;;;;;4992227;28;20407;-71
2022/09/16 01:36:22;;;;;;;2.30;0.40;;;11.70;99.90;;;;;;4992981;28;20069;-71
2022/09/16 01:39:13;;;;;;;2.25;0.50;;;11.60;99.90;;;;;;4995404;28;20054;-70
2022/09/16 01:42:13;;;;;;;3.95;0.50;;;11.50;99.90;;;;;;4996348;28;20046;-71
2022/09/16 01:44:58;;;;;;;5.97;0.50;;;11.50;99.90;;;;;;4995705;28;20050;-69
2022/09/16 01:47:48;;;;;;;3.22;0.50;;;11.50;99.90;;;;;;4995535;28;20050;-69
2022/09/16 01:50:33;;;;;;;4.50;0.90;;;11.40;99.90;;;;;;4996637;28;20061;-69
2022/09/16 01:53:05;;;;;;;2.20;0.45;;;11.40;99.90;;;;;;4995229;28;20042;-69
2022/09/16 01:55:33;;;;;;;4.85;0.40;;;11.40;99.90;;;;;;4995424;28;20050;-69
2022/09/16 01:58:13;;;;;;;3.38;0.68;;;11.40;99.90;;;;;;4995338;28;20062;-69
2022/09/16 02:00:44;;;;;;;2.67;0.40;;;11.40;99.90;;;;;;4995437;28;20046;-69
2022/09/16 02:03:20;;;;;;;2.65;0.63;;;11.40;99.90;;;;;;4996519;28;20512;-69
2022/09/16 02:05:52;;;;;;;4.60;0.80;;;11.40;99.90;;;;;;4995565;28;20042;-69
2022/09/16 02:08:33;;;;;;;1.33;0.38;;;11.40;99.90;;;;;;4997058;28;20059;-70
2022/09/16 02:11:02;;;;;;;5.13;0.95;;;11.40;99.90;;;;;;4994566;28;20529;-70
2022/09/16 02:13:41;;;;;;;5.20;0.95;;;11.70;99.90;;;;;;4994842;28;20042;-70
2022/09/16 02:16:15;;;;;;;1.42;0.55;;;11.40;99.90;;;;;;4996346;28;20054;-70
2022/09/16 02:18:45;;;;;;;2.15;0.30;;;11.50;99.90;;;;;;4995272;28;20437;-70
2022/09/16 02:21:14;;;;;;;2.88;0.40;;;11.40;99.90;;;;;;4996161;28;20060;-70
2022/09/16 02:23:47;;;;;;;1.58;0.45;;;11.40;99.90;;;;;;4995955;28;20144;-69
2022/09/16 02:26:16;;;;;;;3.50;0.50;;;11.40;99.90;;;;;;4996065;28;20049;-69
2022/09/16 02:28:45;;;;;;;2.53;0.40;;;11.40;99.90;;;;;;4994763;28;20058;-70
2022/09/16 02:31:13;;;;;;;2.75;1.17;;;11.50;99.90;;;;;;4995818;28;20046;-69
2022/09/16 02:33:48;;;;;;;3.08;0.40;;;11.30;99.90;;;;;;4994681;28;20049;-69
2022/09/16 02:36:19;;;;;;;3.22;0.45;;;11.30;99.90;;;;;;4993915;28;20406;-69
2022/09/16 02:38:48;;;;;;;2.95;0.50;;;11.30;99.90;;;;;;4995828;28;20137;-70
2022/09/16 02:41:14;;;;;;;2.85;0.38;;;11.40;99.90;;;;;;4995406;28;20046;-70
2022/09/16 02:43:44;;;;;;;2.95;0.50;;;11.50;99.90;;;;;;4994511;28;20046;-70
2022/09/16 02:46:17;;;;;;;3.58;0.88;;;11.30;99.90;;;;;;4995537;28;20498;-70
2022/09/16 02:49:02;;;;;;;;;;;11.40;99.90;;;;;;4994789;28;20089;-70
2022/09/16 02:51:48;;;;;;;4.20;0.52;;;11.30;99.90;;;;;;4994473;28;19930;-70
2022/09/16 02:54:46;;;;;;;3.00;0.40;;;11.30;99.90;;;;;;4995417;28;20399;-70
2022/09/16 02:57:12;;;;;;;3.15;0.50;;;11.40;99.90;;;;;;4995308;28;20097;-70
2022/09/16 02:59:38;;;;;;;3.40;0.50;;;11.20;99.90;;;;;;4995203;28;20192;-70
2022/09/16 03:02:04;;;;;;;2.65;0.32;;;11.20;99.90;;;;;;4995111;28;20430;-70
2022/09/16 03:04:30;;;;;;;1.63;0.50;;;11.30;99.90;;;;;;4994411;28;20089;-70
2022/09/16 03:06:56;;;;;;;1.55;0.40;;;11.20;99.90;;;;;;4994716;28;20085;-69
2022/09/16 03:09:23;;;;;;;3.55;0.50;;;11.20;99.90;;;;;;4995362;28;20062;-69
2022/09/16 03:12:04;;;;;;;1.80;0.65;;;11.40;99.90;;;;;;4993769;28;20080;-68
2022/09/16 03:14:48;;;;;;;6.07;0.52;;;11.30;99.90;;;;;;4993811;28;20047;-69
2022/09/16 03:17:37;;;;;;;4.40;1.05;;;11.10;99.90;;;;;;4995498;28;20054;-68
2022/09/16 03:20:34;;;;;;;5.80;0.52;;;11.40;99.90;;;;;;4994959;28;20449;-67
2022/09/16 03:23:46;;;;;;;3.65;0.80;;;11.10;99.90;;;;;;4993919;28;20116;-69
2022/09/16 03:26:29;;;;;;;1.55;0.50;;;11.10;99.90;;;;;;4994943;28;20056;-69
2022/09/16 03:29:23;;;;;;;4.25;0.57;;;11.00;99.90;;;;;;4993568;28;20101;-69
2022/09/16 03:31:57;;;;;;;4.43;0.50;;;11.10;99.90;;;;;;4994749;28;20050;-69
2022/09/16 03:34:28;;;;;;;3.33;0.73;;;11.10;99.90;;;;;;4978125;28;20105;-69
2022/09/16 03:37:00;;;;;;;7.82;0.70;;;11.20;99.90;;;;;;4994204;28;20046;-69
2022/09/16 03:39:26;;;;;;;4.93;0.50;;;11.20;99.90;;;;;;4993782;28;20372;-69
2022/09/16 03:41:54;;;;;;;3.67;0.40;;;11.00;99.90;;;;;;4993662;28;20078;-69
2022/09/16 03:44:20;;;;;;;2.03;0.35;;;11.20;99.90;;;;;;4994779;28;20055;-69
2022/09/16 03:46:45;;;;;;;4.10;0.70;;;11.20;99.90;;;;;;4993478;28;20050;-69
2022/09/16 03:49:12;;;;;;;4.35;0.50;;;11.00;99.90;;;;;;4993120;28;20108;-69
2022/09/16 03:51:37;;;;;;;1.77;0.40;;;11.00;99.90;;;;;;4993486;28;20049;-69
2022/09/16 03:54:03;;;;;;;3.95;0.50;;;11.00;99.90;;;;;;4992887;28;20046;-69
2022/09/16 03:56:29;;;;;;;5.72;0.40;;;11.00;99.90;;;;;;4993605;28;20061;-69
2022/09/16 03:58:55;;;;;;;2.88;0.50;;;10.90;99.90;;;;;;4993215;28;20050;-68
2022/09/16 04:01:21;;;;;;;3.90;0.60;;;10.90;99.90;;;;;;4993727;28;20038;-69
2022/09/16 04:03:47;;;;;;;2.55;0.50;;;10.90;99.90;;;;;;4994398;28;20077;-69
2022/09/16 04:06:12;;;;;;;3.40;0.40;;;10.90;99.90;;;;;;4993728;28;20057;-69
2022/09/16 04:08:38;;;;;;;3.05;0.50;;;10.90;99.90;;;;;;4992917;28;20054;-69
2022/09/16 04:11:05;;;;;;;4.85;0.90;;;11.00;99.90;;;;;;4993213;28;20410;-69
2022/09/16 04:13:33;;;;;;;6.15;1.15;;;11.00;99.90;;;;;;4993085;28;20042;-69
2022/09/16 04:16:00;;;;;;;3.75;0.50;;;10.90;99.90;;;;;;4993056;28;20505;-69
2022/09/16 04:18:26;;;;;;;3.28;0.60;;;11.20;99.90;;;;;;4994260;28;20042;-68
2022/09/16 04:20:57;;;;;;;5.45;0.50;;;11.00;99.90;;;;;;4994010;28;20050;-69
2022/09/16 04:23:24;;;;;;;2.35;0.60;;;10.80;99.90;;;;;;4992991;28;20112;-69
2022/09/16 04:26:00;;;;;;;4.03;0.60;;;10.80;99.90;;;;;;4992774;28;20066;-69
2022/09/16 04:28:29;;;;;;;4.03;0.80;;;10.80;99.90;;;;;;4994460;28;20064;-68
2022/09/16 04:31:00;;;;;;;3.90;0.63;;;11.00;99.90;;;;;;4993143;28;20394;-69
2022/09/16 04:33:28;;;;;;;4.07;0.70;;;10.90;99.90;;;;;;4993850;28;20481;-69
2022/09/16 04:35:53;;;;;;;4.15;1.20;;;10.80;99.90;;;;;;4992190;28;20054;-70
2022/09/16 04:38:19;;;;;;;5.32;0.60;;;10.70;99.90;;;;;;4994065;28;20061;-69
2022/09/16 04:40:45;;;;;;;2.28;0.50;;;10.70;99.90;;;;;;4993177;28;20073;-69
2022/09/16 04:43:10;;;;;;;3.15;0.50;;;10.80;99.90;;;;;;4993527;28;20113;-69
2022/09/16 04:45:36;;;;;;;4.13;0.50;;;10.90;99.90;;;;;;4993980;28;20078;-69
2022/09/16 04:48:02;;;;;;;2.65;0.50;;;10.80;99.90;;;;;;4992638;28;20042;-69
2022/09/16 04:50:27;;;;;;;6.85;0.80;;;10.80;99.90;;;;;;4993400;28;20046;-70
2022/09/16 04:52:53;;;;;;;6.95;1.13;;;11.00;99.90;;;;;;4976891;28;20050;-69
2022/09/16 04:55:22;;;;;;;3.42;0.75;;;10.90;99.90;;;;;;4992829;28;20453;-69
2022/09/16 04:57:48;;;;;;;4.55;0.60;;;10.80;99.90;;;;;;4993811;28;20049;-69
2022/09/16 05:00:14;;;;;;;3.95;0.60;;;10.70;99.90;;;;;;4992326;28;20073;-69
2022/09/16 05:02:43;;;;;;;4.20;0.70;;;10.70;99.90;;;;;;4992657;28;20410;-69
2022/09/16 05:05:09;;;;;;;3.10;0.60;;;10.60;99.90;;;;;;4992313;28;20047;-69
2022/09/16 05:07:34;;;;;;;4.03;0.57;;;10.60;99.90;;;;;;4992283;28;20042;-69
2022/09/16 05:10:00;;;;;;;2.08;0.52;;;10.70;99.90;;;;;;4992485;28;20062;-69
2022/09/16 05:12:26;;;;;;;7.63;0.60;;;10.50;99.90;;;;;;4995514;28;20050;-69
2022/09/16 05:14:51;;;;;;;3.33;0.43;;;10.50;99.90;;;;;;4996103;28;20054;-69
2022/09/16 05:17:17;;;;;;;6.20;0.75;;;11.10;99.90;;;;;;4996218;28;20095;-69
2022/09/16 05:19:43;;;;;;;4.38;0.60;;;10.70;99.90;;;;;;4997120;28;20079;-69
2022/09/16 05:22:08;;;;;;;3.00;0.60;;;10.70;99.90;;;;;;4996277;28;20394;-69
2022/09/16 05:24:37;;;;;;;5.60;0.50;;;10.80;99.90;;;;;;4997263;28;20042;-69
2022/09/16 05:27:03;;;;;;;5.63;0.47;;;10.50;99.90;;;;;;4980115;28;20085;-69
2022/09/16 05:29:28;;;;;;;3.63;0.43;;;10.70;99.90;;;;;;4979840;28;20092;-69
2022/09/16 05:31:54;;;;;;;3.65;0.50;;;10.60;99.90;;;;;;4996967;28;20050;-69
2022/09/16 05:34:22;;;;;;;3.58;0.57;;;10.60;99.90;;;;;;4995566;28;20084;-69
2022/09/16 05:36:49;;;;;;;5.10;0.45;;;10.60;99.90;;;;;;4996678;28;20080;-69
2022/09/16 05:39:19;;;;;;;3.72;0.55;;;11.10;99.90;;;;;;4995872;28;20061;-69
2022/09/16 05:41:45;;;;;;;5.18;0.50;;;10.80;99.90;;;;;;4996137;28;20097;-69
2022/09/16 05:44:11;;;;;;;4.35;0.50;;;10.90;99.90;;;;;;4995615;28;20082;-69
2022/09/16 05:46:39;;;;;;;6.00;0.60;;;10.70;99.90;;;;;;4996848;28;20133;-69
2022/09/16 05:49:05;;;;;;;2.40;0.50;;;10.80;99.90;;;;;;4995646;28;20057;-69
2022/09/16 05:51:31;;;;;;;4.85;0.40;;;10.80;99.90;;;;;;4996745;28;20053;-69
2022/09/16 05:53:58;;;;;;;8.18;0.95;;;10.60;99.90;;;;;;4996971;28;20402;-69
2022/09/16 05:56:29;;;;;;;3.88;0.50;;;10.70;99.90;;;;;;4996671;28;20446;-68
2022/09/16 05:58:56;;;;;;;3.60;0.60;;;10.70;99.90;;;;;;4995659;28;20054;-68
2022/09/16 06:01:31;;;;;;;3.42;0.50;;;10.80;99.90;;;;;;4996423;28;20054;-69
2022/09/16 06:03:56;;;;;;;2.65;0.82;;;11.00;99.90;;;;;;4995841;28;20046;-69
2022/09/16 06:06:30;;;;;;;3.95;0.50;;;11.10;99.90;;;;;;4979008;28;20386;-69
2022/09/16 06:08:59;;;;;;;4.78;0.63;;;11.10;99.90;;;;;;4995591;28;20058;-69
2022/09/16 06:11:26;;;;;;;6.40;0.60;;;11.00;99.90;;;;;;4996300;28;20116;-69
2022/09/16 06:13:57;;;;;;;4.10;0.60;;;11.00;99.90;;;;;;4995944;28;20089;-69
2022/09/16 06:16:26;;;;;;;4.82;0.50;;;11.10;99.90;;;;;;4996396;28;20050;-69
2022/09/16 06:18:53;;;;;;;2.30;0.50;;;11.20;99.90;;;;;;4994994;28;20363;-69
2022/09/16 06:21:19;;;;;;;3.72;0.68;;;11.00;99.90;;;;;;4995057;28;20398;-69
2022/09/16 06:23:45;;;;;;;4.35;0.60;;;11.30;99.90;;;;;;4995660;28;20042;-69
2022/09/16 06:26:14;;;;;;;4.60;0.40;;;11.00;99.90;;;;;;4996053;28;20422;-68
2022/09/16 06:28:41;;;;;;;4.55;0.50;;;11.00;99.90;;;;;;4978889;28;20050;-68
2022/09/16 06:31:23;;;;;;;5.65;0.50;;;11.00;99.90;;;;;;4995987;28;20129;-68
2022/09/16 06:33:50;;;;;;;5.47;0.95;;;11.10;99.90;;;;;;4995884;28;20046;-68
2022/09/16 06:36:21;;;;;;;5.10;0.60;;;11.00;99.90;;;;;;4994158;28;20125;-68
2022/09/16 06:38:48;;;;;;;3.65;0.50;;;11.00;99.90;;;;;;4994513;28;20086;-68
2022/09/16 06:41:15;;;;;;;5.65;0.75;;;11.20;99.90;;;;;;4994381;28;20494;-68
2022/09/16 06:43:41;;;;;;;6.13;0.60;;;11.00;99.90;;;;;;4995751;28;20039;-68
2022/09/16 06:46:16;;;;;;;3.50;0.77;;;11.30;99.90;;;;;;4995862;28;20125;-68
2022/09/16 06:48:52;;;;;;;4.70;0.50;;;11.00;99.90;;;;;;4995611;28;20482;-68
2022/09/16 06:51:26;;;;;;;6.30;0.70;;;11.60;99.90;;;;;;4995509;28;20046;-69
2022/09/16 06:53:55;;;;;;;6.53;0.70;;;11.10;99.90;;;;;;4995179;28;20042;-69
2022/09/16 06:56:21;;;;;;;4.35;0.40;;;11.30;99.90;;;;;;4995313;28;20046;-69
2022/09/16 06:58:51;;;;;;;5.50;0.80;;;11.20;99.90;;;;;;4994132;28;20042;-69
2022/09/16 07:01:19;;;;;;;5.22;0.70;;;11.30;99.90;;;;;;4995322;28;20154;-69
2022/09/16 07:03:48;;;;;;;6.72;0.77;;;11.20;99.90;;;;;;4977985;28;20062;-70
2022/09/16 07:06:15;;;;;;;3.55;0.75;;;11.30;99.90;;;;;;4994420;28;20046;-69
2022/09/16 07:08:41;;;;;;;4.47;0.60;;;11.50;99.90;;;;;;4994080;28;20204;-69
2022/09/16 07:11:19;;;;;;;5.13;0.73;;;11.50;99.90;;;;;;4994935;28;20046;-69
2022/09/16 07:13:46;;;;;;;4.72;0.50;;;11.40;99.90;;;;;;4995136;28;20068;-69
2022/09/16 07:16:14;;;;;;;3.92;0.60;;;11.70;99.90;;;;;;4994199;28;20383;-68
2022/09/16 07:18:40;;;;;;;6.68;0.80;;;11.70;99.90;;;;;;4993942;28;20475;-69
2022/09/16 07:21:13;;;;;;;6.32;0.70;;;11.50;99.90;;;;;;4995205;28;20090;-69
2022/09/16 07:23:39;;;;;;;5.25;0.73;;;11.70;99.90;;;;;;4995024;28;20046;-69
2022/09/16 07:26:10;;;;;;;2.80;0.50;;;11.90;99.90;;;;;;4995099;28;20104;-69
2022/09/16 07:28:37;;;;;;;3.00;0.45;;;12.00;99.90;;;;;;4977613;28;20053;-69
2022/09/16 07:31:05;;;;;;;3.90;0.50;;;11.80;99.90;;;;;;4993746;28;20057;-70
2022/09/16 07:33:34;;;;;;;6.38;0.60;;;11.90;99.90;;;;;;4994840;28;20044;-69
2022/09/16 07:36:00;;;;;;;8.70;0.88;;;12.20;99.90;;;;;;4992387;28;20053;-69
2022/09/16 07:38:28;;;;;;;5.45;0.65;;;12.10;99.90;;;;;;4993830;28;20082;-69
2022/09/16 07:40:54;;;;;;;5.32;0.70;;;12.20;99.90;;;;;;4994743;28;20046;-70
2022/09/16 07:43:20;;;;;;;2.53;0.50;;;12.30;99.90;;;;;;4994581;28;20192;-68
2022/09/16 07:45:46;;;;;;;7.43;0.60;;;12.30;99.90;;;;;;4994346;28;20054;-69
2022/09/16 07:48:12;;;;;;;4.75;0.68;;;12.50;99.90;;;;;;4993695;28;20046;-69
2022/09/16 07:50:37;;;;;;;4.07;0.63;;;12.50;99.90;;;;;;4993369;28;20054;-68
2022/09/16 07:53:04;;;;;;;6.63;1.50;;;12.50;99.90;;;;;;4994325;28;20539;-70
2022/09/16 07:55:29;;;;;;;7.70;0.80;;;12.70;99.90;;;;;;4993367;28;20054;-70
2022/09/16 07:57:55;;;;;;;5.47;0.50;;;12.70;99.90;;;;;;4993816;28;20392;-70
2022/09/16 08:00:21;;;;;;;6.35;0.70;;;13.00;99.90;;;;;;4993676;28;20050;-71
2022/09/16 08:02:46;;;;;;;4.07;0.60;;;13.00;99.90;;;;;;4993534;28;20078;-71
2022/09/16 08:05:12;;;;;;;4.10;0.50;;;12.90;99.90;;;;;;4993058;28;20537;-70
2022/09/16 08:07:38;;;;;;;4.32;0.63;;;12.70;99.90;;;;;;4993316;28;20050;-71
2022/09/16 08:10:04;;;;;;;5.93;0.50;;;12.60;99.90;;;;;;4993561;28;20479;-71
2022/09/16 08:12:32;;;;;;;2.67;0.47;;;12.60;99.90;;;;;;4992477;28;20050;-70
2022/09/16 08:14:59;;;;;;;7.15;0.70;;;12.30;99.90;;;;;;4990924;28;20490;-71
2022/09/16 08:17:25;;;;;;;2.63;0.57;;;12.40;99.90;;;;;;4993893;28;20046;-71
2022/09/16 08:19:51;;;;;;;5.72;0.60;;;12.30;99.90;;;;;;4976564;28;20139;-70
2022/09/16 08:22:17;;;;;;;4.35;0.80;;;12.30;99.90;;;;;;4990093;28;20125;-70
2022/09/16 08:24:42;;;;;;;5.13;0.70;;;12.40;99.90;;;;;;4993685;28;20092;-71
2022/09/16 08:27:08;;;;;;;7.03;0.60;;;12.40;99.90;;;;;;4993622;28;20478;-70
2022/09/16 08:29:34;;;;;;;4.50;0.50;;;12.70;99.90;;;;;;4993291;28;20445;-73
2022/09/16 08:31:59;;;;;;;6.40;0.80;;;12.60;99.90;;;;;;4992556;28;20382;-70
2022/09/16 08:34:25;;;;;;;7.20;1.02;;;12.70;99.90;;;;;;4993523;28;20043;-71
2022/09/16 08:36:51;;;;;;;5.78;0.68;;;12.80;99.90;;;;;;4993030;28;20089;-70
2022/09/16 08:39:17;;;;;;;4.25;0.50;;;13.00;99.90;;;;;;4973466;28;20056;-71
2022/09/16 08:42:30;;;;;;;6.07;0.70;;;13.00;99.90;;;;;;4973161;28;20356;-73
2022/09/16 08:45:18;;;;;;;5.85;0.80;;;13.10;99.90;;;;;;4971189;28;20054;-75
2022/09/16 08:48:14;;;;;;;3.05;0.68;;;13.30;99.90;;;;;;4971699;28;20812;-70
2022/09/16 08:50:45;;;;;;;4.47;1.05;;;13.30;99.90;;;;;;4980181;28;20051;-72
2022/09/16 08:53:42;;;;;;;7.70;0.95;;;13.70;99.90;;;;;;4981560;28;20498;-69
2022/09/16 08:56:14;;;;;;;6.38;0.70;;;13.70;99.90;;;;;;4979526;28;20054;-70
2022/09/16 08:58:54;;;;;;;5.03;0.70;;;13.60;99.90;;;;;;4993962;28;20113;-69
2022/09/16 09:01:51;;;;;;;4.30;0.52;;;13.80;99.90;;;;;;4980034;28;20050;-70
2022/09/16 09:04:17;;;;;;;6.25;0.63;;;13.80;99.90;;;;;;4955046;28;20104;-70
2022/09/16 09:06:56;;;;;;;5.20;0.60;;;14.00;99.90;;;;;;4978249;28;20047;-72
2022/09/16 09:09:39;;;;;;;4.22;0.50;;;14.00;99.90;;;;;;4978508;28;20066;-71
2022/09/16 09:12:25;;;;;;;8.38;0.60;;;14.10;99.90;;;;;;4978164;28;20054;-69
2022/09/16 09:15:35;;;;;;;4.25;0.60;;;14.20;99.90;;;;;;4963342;28;20089;-70
2022/09/16 09:18:31;;;;;;;7.93;0.60;;;14.50;99.90;;;;;;4971928;28;20065;-72
2022/09/16 09:21:08;;;;;;;6.38;0.52;;;14.50;99.90;;;;;;4975186;28;20127;-70
2022/09/16 09:23:43;;;;;;;6.47;0.75;;;14.40;99.90;;;;;;4976783;28;20054;-70
2022/09/16 09:26:52;;;;;;;7.38;0.93;;;14.50;99.90;;;;;;4976341;28;20821;-70
2022/09/16 09:29:25;;;;;;;3.28;0.50;;;14.40;99.90;;;;;;4976009;28;20498;-71
2022/09/16 09:32:28;;;;;;;7.07;0.95;;;14.50;99.90;;;;;;4976853;28;20413;-70
2022/09/16 09:35:18;;;;;;;6.85;0.55;;;14.60;99.90;;;;;;4960039;28;20165;-72
2022/09/16 09:38:08;;;;;;;4.57;0.50;;;14.50;99.90;;;;;;4972124;28;20105;-73
2022/09/16 09:40:51;;;;;;;3.80;0.60;;;14.60;99.90;;;;;;4980185;28;20051;-72
2022/09/16 09:43:29;;;;;;;5.15;0.60;;;14.60;99.90;;;;;;4958491;28;20136;-71
2022/09/16 09:46:07;;;;;;;5.32;0.73;;;14.60;99.90;;;;;;4979608;28;20193;-72
2022/09/16 09:48:39;;;;;;;3.55;0.50;;;14.50;99.90;;;;;;4979995;28;20446;-72
2022/09/16 09:51:34;;;;;;;5.10;0.60;;;14.30;99.90;;;;;;4979091;28;20046;-71
2022/09/16 09:54:26;;;;;;;5.93;0.73;;;14.20;99.90;;;;;;4976243;28;20096;-72
2022/09/16 09:56:58;;;;;;;3.92;0.50;;;14.20;99.90;;;;;;4975026;28;20062;-72
2022/09/16 09:59:47;;;;;;;3.65;0.60;;;14.20;99.90;;;;;;4977769;28;20050;-71
2022/09/16 10:02:21;;;;;;;2.88;0.40;;;14.40;99.90;;;;;;4977156;28;20054;-72
2022/09/16 10:04:47;;;;;;;4.07;0.40;;;14.40;99.90;;;;;;4977892;28;20050;-71
2022/09/16 10:07:16;;;;;;;3.20;0.50;;;14.60;99.90;;;;;;4979933;28;20415;-75
2022/09/16 10:09:51;;;;;;;4.60;0.98;;;14.50;99.90;;;;;;4979731;28;20141;-73
2022/09/16 10:12:46;;;;;;;1.52;0.40;;;14.80;99.90;;;;;;4974814;28;20053;-75
2022/09/16 10:15:27;;;;;;;3.92;0.80;;;14.80;99.90;;;;;;4960586;28;20702;-73
2022/09/16 10:17:55;;;;;;;4.43;0.50;;;14.80;99.90;;;;;;4975391;28;20066;-71
2022/09/16 10:20:34;;;;;;;3.58;0.60;;;14.70;99.90;;;;;;4987299;28;20061;-74
2022/09/16 10:23:15;;;;;;;3.38;0.77;;;14.80;99.90;;;;;;4976518;28;20057;-77
2022/09/16 10:25:42;;;;;;;1.77;0.35;;;14.90;99.90;;;;;;4978081;28;20050;-73
2022/09/16 10:28:23;;;;;;;4.70;0.40;;;14.90;99.90;;;;;;4981124;28;20046;-76
2022/09/16 10:30:51;;;;;;;2.63;0.50;;;14.80;99.90;;;;;;4976303;28;20053;-75
2022/09/16 10:33:22;;;;;;;4.82;0.50;;;14.90;99.90;;;;;;4978898;28;20102;-71
2022/09/16 10:36:09;;;;;;;5.93;0.43;;;14.80;99.90;;;;;;4961172;28;20475;-74
2022/09/16 10:38:45;;;;;;;7.20;0.65;;;14.90;99.90;;;;;;4976815;28;20128;-74
2022/09/16 10:41:24;;;;;;;5.47;0.68;;;14.90;99.90;;;;;;4974794;28;20475;-74
2022/09/16 10:43:57;;;;;;;4.13;0.50;;;15.10;99.90;;;;;;4976269;28;20039;-74
2022/09/16 10:46:24;;;;;;;9.90;1.10;;;15.10;99.90;;;;;;4972323;28;20063;-73
2022/09/16 10:48:53;;;;;;;6.15;0.80;;;15.20;99.90;;;;;;4972935;28;20051;-73
2022/09/16 10:51:30;;;;;;;2.30;0.40;;;15.30;99.90;;;;;;4975064;28;20162;-73
2022/09/16 10:54:00;;;;;;;2.72;0.30;;;15.40;99.90;;;;;;4976063;28;20134;-72
2022/09/16 10:56:45;;;;;;;3.95;0.60;;;15.30;99.90;;;;;;4973535;28;20082;-78
2022/09/16 10:59:12;;;;;;;3.78;0.82;;;15.20;99.90;;;;;;4977705;28;20053;-75
2022/09/16 11:02:07;;;;;;;4.93;0.50;;;15.30;99.90;;;;;;4977649;28;20097;-75
2022/09/16 11:04:39;;;;;;;5.85;0.75;;;15.50;99.90;;;;;;4975562;28;20057;-73
2022/09/16 11:07:16;;;;;;;4.68;0.60;;;15.50;99.90;;;;;;4976088;28;20087;-76
2022/09/16 11:10:12;;;;;;;10.98;0.75;;;15.70;99.90;;;;;;4974141;28;20061;-70
2022/09/16 11:12:59;;;;;;;5.85;1.23;;;15.70;99.90;;;;;;4975447;28;20082;-77
2022/09/16 11:15:46;;;;;;;6.18;0.60;;;15.20;99.90;;;;;;4977207;28;20046;-71
2022/09/16 11:18:39;;;;;;;8.98;0.70;;;14.90;99.90;;;;;;4978447;28;21093;-71
2022/09/16 11:21:23;;;;;;;6.93;0.70;;;14.40;99.90;;;;;;4976325;28;20504;-72
2022/09/16 11:23:52;;;;;;;5.20;0.60;;;14.60;99.90;;;;;;4975125;28;20092;-77
2022/09/16 11:26:46;;;;;;;3.25;0.40;;;14.70;99.90;;;;;;4955930;28;20104;-72
2022/09/16 11:29:21;;;;;;;5.70;0.70;;;14.80;99.90;;;;;;4977587;28;20573;-69
2022/09/16 11:32:10;;;;;;;7.72;0.77;;;14.80;99.90;;;;;;4972861;28;20094;-73
2022/09/16 11:34:48;;;;;;;4.57;0.52;;;15.20;99.90;;;;;;4978196;28;20433;-71
2022/09/16 11:37:26;;;;;;;3.47;0.60;;;14.90;99.90;;;;;;4969076;28;20062;-70
2022/09/16 11:40:19;;;;;;;4.53;0.40;;;14.70;99.90;;;;;;4972206;28;20578;-71
2022/09/16 11:43:18;;;;;;;2.55;0.50;;;14.50;99.90;;;;;;4979148;28;20042;-71
2022/09/16 11:45:51;;;;;;;6.82;0.50;;;14.10;99.90;;;;;;4974481;28;20055;-70
2022/09/16 11:48:17;;;;;;;;;;;14.20;99.90;;;;;;4976288;28;20151;-71
2022/09/16 11:51:09;;;;;;;5.60;0.80;;;14.00;99.90;;;;;;4973977;28;20020;-69
2022/09/16 11:53:34;;;;;;;5.68;0.93;;;14.20;99.90;;;;;;4975765;28;20054;-70
2022/09/16 11:56:07;;;;;;;8.23;1.52;;;14.30;99.90;;;;;;4971705;28;20054;-70
2022/09/16 11:58:55;;;;;;;5.32;0.65;;;14.50;99.90;;;;;;4971080;28;20070;-70
2022/09/16 12:01:43;;;;;;;6.28;0.70;;;14.70;99.90;;;;;;4984256;28;20050;-75
2022/09/16 12:04:37;;;;;;;9.73;1.15;;;15.00;99.90;;;;;;4974224;28;20069;-70
2022/09/16 12:07:15;;;;;;;6.60;0.98;;;15.20;99.90;;;;;;4973015;28;20047;-69
2022/09/16 12:09:59;;;;;;;8.18;1.17;;;15.30;99.90;;;;;;4977572;28;20086;-72
2022/09/16 12:12:38;;;;;;;11.73;1.27;;;15.30;99.90;;;;;;4977431;28;20121;-70
2022/09/16 12:15:33;;;;;;;9.32;0.80;;;15.40;99.90;;;;;;4970829;28;20059;-70
2022/09/16 12:18:19;;;;;;;5.72;0.70;;;15.40;99.90;;;;;;4977951;28;20054;-68
2022/09/16 12:21:01;;;;;;;6.38;1.35;;;15.40;99.90;;;;;;4975517;28;20060;-68
2022/09/16 12:23:32;;;;;;;8.03;1.00;;;15.30;99.90;;;;;;4975714;28;20046;-71
2022/09/16 12:26:15;;;;;;;6.28;0.90;;;15.30;99.90;;;;;;4978690;28;20352;-70
2022/09/16 12:28:42;;;;;;;;;;;15.30;99.90;;;;;;4975143;28;20051;-73
2022/09/16 12:31:22;;;;;;;8.25;1.25;;;15.30;99.90;;;;;;4976379;28;20289;-72
2022/09/16 12:34:00;;;;;;;8.30;1.10;;;15.30;99.90;;;;;;4974242;28;20042;-72
2022/09/16 12:36:33;;;;;;;6.75;1.10;;;15.20;99.90;;;;;;4976454;28;20182;-74
2022/09/16 12:39:00;;;;;;;9.80;1.25;;;15.20;99.90;;;;;;4974713;28;20051;-70
2022/09/16 12:42:03;;;;;;;11.02;1.13;;;15.10;99.90;;;;;;4976468;28;20380;-70
2022/09/16 12:44:46;;;;;;;5.10;1.07;;;15.10;99.90;;;;;;4978283;28;20051;-73
2022/09/16 12:47:41;;;;;;;6.45;0.85;;;15.20;99.90;;;;;;4974556;28;20506;-75
2022/09/16 12:50:16;;;;;;;10.68;1.10;;;15.20;99.90;;;;;;4975731;28;20058;-71
2022/09/16 12:53:19;;;;;;;10.48;1.10;;;15.20;99.90;;;;;;4972158;28;20039;-71
2022/09/16 12:55:56;;;;;;;7.03;0.90;;;15.30;99.90;;;;;;4979509;28;20587;-69
2022/09/16 12:58:47;;;;;;;5.88;1.20;;;15.30;99.90;;;;;;4979197;28;20486;-69
2022/09/16 13:01:21;;;;;;;7.32;0.80;;;15.20;99.90;;;;;;4957544;28;20081;-74
2022/09/16 13:04:02;;;;;;;9.77;0.95;;;15.10;99.90;;;;;;4974131;28;20085;-74
2022/09/16 13:06:32;;;;;;;3.95;0.60;;;14.90;99.90;;;;;;4974531;28;20047;-72
2022/09/16 13:09:13;;;;;;;9.50;0.80;;;14.80;99.90;;;;;;4973693;28;20434;-72
2022/09/16 13:11:40;;;;;;;7.40;0.75;;;14.70;99.90;;;;;;4954357;28;20195;-73
2022/09/16 13:14:22;;;;;;;10.77;0.80;;;14.60;99.90;;;;;;4943540;28;20081;-72
2022/09/16 13:16:56;;;;;;;3.42;0.70;;;14.60;99.90;;;;;;4975178;28;20049;-69
2022/09/16 13:19:51;;;;;;;3.50;0.40;;;14.70;99.90;;;;;;4977173;28;20100;-75
2022/09/16 13:22:20;;;;;;;6.10;0.52;;;14.70;99.90;;;;;;4973397;28;20042;-72
2022/09/16 13:24:51;;;;;;;2.88;0.40;;;14.90;99.90;;;;;;4961682;28;20151;-72